Chepstow, United Kingdom
Current Conditions -  °F | °C
As of 8:20 AM on Monday 26 Jan 2015 (Local Time) from EGGD Reporting Station
Haze Haze  
Wind Chill:   Ceiling: 200
Heat Index:   Visibility: 0.62mi
Dew Point:   Wind: 14mph
Humidity: 100%   Direction: 270°W
Pressure: 30.18"   Gusts: NA
Location:  51.64°N, 2.68°W
Report Text: EGGD 260820Z 27012KT 1000 R27/P1500 BR FEW001 BKN002 08/08 Q1022
Loading
Personal Weather Stations






























Interactive Weather Map New forecast layout! Learn more

10-Day Weather Forecast

Advertisements
Track Severe Weather on mobile